Time;durP1;ratioP1;P1;durP2;ratioP2;P2;SDS_P1;SDS_P2;PMS_P1;PMS_P2;Temp;Humidity;BMP_temperature;BMP_pressure;BME280_temperature;BME280_humidity;BME280_pressure;Samples;Min_cycle;Max_cycle;Signal;HPM_P1;HPM_P2
2022/11/17 00:02:36;;;;;;;15.55;6.75;;;;;;;;;;6244177;28;20136;-63
2022/11/17 00:05:36;;;;;;;16.08;6.82;;;;;;;;;;6245254;28;20407;-62
2022/11/17 00:08:37;;;;;;;17.70;7.07;;;;;;;;;;6245263;28;20060;-63
2022/11/17 00:14:56;;;;;;;17.08;7.30;;;;;;;;;;6249547;28;20045;-59
2022/11/17 00:21:20;;;;;;;18.70;8.10;;;;;;;;;;6252858;28;20447;-60
2022/11/17 00:24:22;;;;;;;21.05;7.65;;;;;;;;;;6253262;28;20385;-60
2022/11/17 00:27:23;;;;;;;20.30;8.00;;;;;;;;;;6247014;28;20092;-61
2022/11/17 00:37:04;;;;;;;18.88;6.72;;;;;;;;;;6245822;28;20374;-61
2022/11/17 00:40:05;;;;;;;18.30;6.25;;;;;;;;;;6246690;28;20069;-60
2022/11/17 00:43:05;;;;;;;17.27;6.18;;;;;;;;;;6246032;28;20052;-60
2022/11/17 00:46:06;;;;;;;17.77;5.88;;;;;;;;;;6247896;28;20412;-62
2022/11/17 00:49:08;;;;;;;15.25;5.60;;;;;;;;;;6245734;28;20057;-62
2022/11/17 00:52:09;;;;;;;;;;;;;;;;;;6248215;28;20535;-63
2022/11/17 00:55:10;;;;;;;20.92;6.35;;;;;;;;;;6243332;28;19931;-62
2022/11/17 00:58:11;;;;;;;18.00;5.75;;;;;;;;;;6247249;28;20041;-62
2022/11/17 01:01:11;;;;;;;17.88;5.80;;;;;;;;;;6245090;28;20052;-62
2022/11/17 01:04:13;;;;;;;12.05;5.70;;;;;;;;;;6246324;28;20534;-62
2022/11/17 01:07:14;;;;;;;16.75;6.03;;;;;;;;;;6246042;28;20506;-62
2022/11/17 01:10:15;;;;;;;15.80;5.72;;;;;;;;;;6247538;28;20136;-62
2022/11/17 01:13:16;;;;;;;9.77;4.82;;;;;;;;;;6244752;28;20056;-62
2022/11/17 01:16:18;;;;;;;12.90;5.03;;;;;;;;;;6247930;28;20048;-62
2022/11/17 01:19:20;;;;;;;13.93;5.38;;;;;;;;;;6244984;28;20053;-62
2022/11/17 01:22:21;;;;;;;15.10;5.55;;;;;;;;;;6247423;28;20367;-62
2022/11/17 01:25:21;;;;;;;13.40;5.38;;;;;;;;;;6243649;28;20081;-62
2022/11/17 01:28:22;;;;;;;12.32;5.40;;;;;;;;;;6246960;28;20057;-62
2022/11/17 01:31:25;;;;;;;12.45;5.18;;;;;;;;;;6244743;28;20049;-62
2022/11/17 01:34:26;;;;;;;11.32;5.40;;;;;;;;;;6245470;28;20038;-62
2022/11/17 01:37:27;;;;;;;10.63;4.95;;;;;;;;;;6244096;28;20056;-61
2022/11/17 01:40:28;;;;;;;13.77;5.47;;;;;;;;;;6246703;28;20164;-62
2022/11/17 01:43:38;;;;;;;10.75;5.25;;;;;;;;;;6243756;28;20045;-62
2022/11/17 01:46:40;;;;;;;10.93;5.10;;;;;;;;;;6242951;28;20072;-62
2022/11/17 01:49:40;;;;;;;11.82;4.70;;;;;;;;;;6248682;28;20385;-61
2022/11/17 01:52:54;;;;;;;11.82;5.47;;;;;;;;;;6249489;28;20106;-62
2022/11/17 01:56:05;;;;;;;11.63;5.72;;;;;;;;;;6245172;28;20045;-62
2022/11/17 01:59:20;;;;;;;9.90;4.97;;;;;;;;;;6244056;28;20136;-63
2022/11/17 02:02:21;;;;;;;11.80;5.28;;;;;;;;;;6245664;28;20046;-62
2022/11/17 02:05:59;;;;;;;18.17;7.25;;;;;;;;;;6244262;28;20057;-62
2022/11/17 02:09:02;;;;;;;11.30;5.00;;;;;;;;;;6242413;28;20191;-63
2022/11/17 02:12:07;;;;;;;11.45;5.05;;;;;;;;;;6245907;28;20041;-62
2022/11/17 02:15:08;;;;;;;12.93;5.22;;;;;;;;;;6245452;28;20045;-61
2022/11/17 02:18:09;;;;;;;11.85;5.50;;;;;;;;;;6249477;28;20057;-63
2022/11/17 02:21:29;;;;;;;14.05;6.15;;;;;;;;;;6241029;28;20048;-62
2022/11/17 02:25:10;;;;;;;14.85;6.63;;;;;;;;;;6240290;28;20176;-62
2022/11/17 02:28:16;;;;;;;14.57;5.88;;;;;;;;;;6252542;28;20757;-63
2022/11/17 02:31:23;;;;;;;11.93;5.07;;;;;;;;;;6252095;28;20061;-63
2022/11/17 02:34:29;;;;;;;12.15;5.35;;;;;;;;;;6249281;28;21099;-60
2022/11/17 02:38:05;;;;;;;16.23;5.70;;;;;;;;;;6246019;28;20041;-63
2022/11/17 02:41:21;;;;;;;12.80;4.95;;;;;;;;;;6248034;28;20100;-61
2022/11/17 02:44:38;;;;;;;11.90;5.25;;;;;;;;;;6248827;28;20496;-62
2022/11/17 02:47:43;;;;;;;12.05;5.40;;;;;;;;;;6245322;28;20160;-62
2022/11/17 02:50:45;;;;;;;12.70;4.90;;;;;;;;;;6249525;28;20045;-62
2022/11/17 02:53:48;;;;;;;11.23;4.40;;;;;;;;;;6246365;28;20053;-62
2022/11/17 02:56:49;;;;;;;15.00;4.97;;;;;;;;;;6254058;28;20869;-62
2022/11/17 02:59:49;;;;;;;9.80;4.85;;;;;;;;;;6248913;28;20042;-62
2022/11/17 03:03:24;;;;;;;9.05;4.57;;;;;;;;;;6248755;28;20067;-63
2022/11/17 03:07:04;;;;;;;11.70;5.80;;;;;;;;;;6248001;28;20510;-62
2022/11/17 03:10:21;;;;;;;15.98;5.30;;;;;;;;;;6246606;28;20043;-62
2022/11/17 03:13:21;;;;;;;9.98;4.40;;;;;;;;;;6249884;28;20708;-62
2022/11/17 03:16:33;;;;;;;9.75;4.70;;;;;;;;;;6259842;28;20060;-62
2022/11/17 03:19:42;;;;;;;10.25;4.70;;;;;;;;;;6254510;28;20049;-62
2022/11/17 03:23:06;;;;;;;10.48;4.72;;;;;;;;;;6255734;28;20037;-62
2022/11/17 03:26:11;;;;;;;10.75;4.65;;;;;;;;;;6263049;28;20057;-62
2022/11/17 03:29:15;;;;;;;11.52;4.82;;;;;;;;;;6257877;28;20049;-62
2022/11/17 03:32:17;;;;;;;12.63;5.30;;;;;;;;;;6257888;28;20049;-62
2022/11/17 03:35:24;;;;;;;15.68;5.20;;;;;;;;;;6251188;28;20045;-62
2022/11/17 03:38:27;;;;;;;12.85;4.97;;;;;;;;;;6251118;28;20049;-62
2022/11/17 03:41:34;;;;;;;11.85;4.80;;;;;;;;;;6251632;28;20413;-61
2022/11/17 03:44:38;;;;;;;11.82;5.15;;;;;;;;;;6251148;28;20045;-62
2022/11/17 03:47:40;;;;;;;9.93;5.05;;;;;;;;;;6252554;28;20033;-62
2022/11/17 03:50:49;;;;;;;20.08;10.02;;;;;;;;;;6250826;28;20496;-63
2022/11/17 03:53:51;;;;;;;12.48;6.50;;;;;;;;;;6246869;28;20092;-62
2022/11/17 03:57:02;;;;;;;12.27;5.28;;;;;;;;;;6252357;28;20411;-62
2022/11/17 04:00:08;;;;;;;15.18;6.30;;;;;;;;;;6252475;28;20041;-62
2022/11/17 04:03:09;;;;;;;11.70;4.97;;;;;;;;;;6253811;28;20569;-63
2022/11/17 04:06:10;;;;;;;9.48;4.20;;;;;;;;;;6267044;28;20048;-62
2022/11/17 04:09:10;;;;;;;12.50;5.38;;;;;;;;;;6253791;28;20057;-62
2022/11/17 04:18:50;;;;;;;11.10;4.60;;;;;;;;;;6249369;28;20065;-61
2022/11/17 04:21:50;;;;;;;11.07;4.50;;;;;;;;;;6252141;28;20045;-62
2022/11/17 04:24:51;;;;;;;11.43;4.75;;;;;;;;;;6249262;28;20069;-61
2022/11/17 04:31:16;;;;;;;13.05;5.63;;;;;;;;;;6256406;28;20438;-61
2022/11/17 04:34:17;;;;;;;11.40;5.38;;;;;;;;;;6265263;28;20049;-62
2022/11/17 04:37:17;;;;;;;15.68;8.30;;;;;;;;;;6252330;28;20075;-62
2022/11/17 04:40:18;;;;;;;14.80;5.68;;;;;;;;;;6249916;28;20048;-62
2022/11/17 04:43:18;;;;;;;11.18;4.75;;;;;;;;;;6251002;28;20069;-62
2022/11/17 04:46:21;;;;;;;10.55;4.72;;;;;;;;;;6250657;28;20041;-62
2022/11/17 04:49:23;;;;;;;15.60;6.18;;;;;;;;;;6247736;28;20522;-62
2022/11/17 04:52:23;;;;;;;14.88;6.22;;;;;;;;;;6251423;28;20063;-62
2022/11/17 04:55:24;;;;;;;11.10;4.95;;;;;;;;;;6251889;28;20066;-61
2022/11/17 04:58:25;;;;;;;12.55;5.03;;;;;;;;;;6257657;28;20080;-62
2022/11/17 05:01:26;;;;;;;15.95;9.20;;;;;;;;;;6261285;28;20041;-62
2022/11/17 05:07:46;;;;;;;12.40;4.28;;;;;;;;;;6260308;28;20445;-62
2022/11/17 05:14:06;;;;;;;10.23;5.00;;;;;;;;;;6253727;28;20068;-62
2022/11/17 05:17:08;;;;;;;10.95;5.05;;;;;;;;;;6259877;28;20538;-62
2022/11/17 05:20:09;;;;;;;11.23;4.70;;;;;;;;;;6258532;28;20057;-62
2022/11/17 05:26:34;;;;;;;7.43;3.88;;;;;;;;;;6250291;28;20041;-61
2022/11/17 05:29:35;;;;;;;12.27;5.90;;;;;;;;;;6250512;28;20056;-61
2022/11/17 05:32:35;;;;;;;11.45;5.18;;;;;;;;;;6257677;28;20048;-62
2022/11/17 05:35:36;;;;;;;10.32;4.18;;;;;;;;;;6260556;28;20060;-61
2022/11/17 05:38:36;;;;;;;11.23;3.95;;;;;;;;;;6263759;28;20476;-62
2022/11/17 05:41:37;;;;;;;9.70;4.50;;;;;;;;;;6254230;28;20060;-62
2022/11/17 05:44:38;;;;;;;13.57;5.47;;;;;;;;;;6251463;28;20077;-61
2022/11/17 05:47:39;;;;;;;7.80;3.97;;;;;;;;;;6260682;28;20045;-61
2022/11/17 05:50:40;;;;;;;9.88;4.28;;;;;;;;;;6259131;28;20045;-61
2022/11/17 05:53:40;;;;;;;9.32;4.65;;;;;;;;;;6247424;28;20052;-61
2022/11/17 05:56:57;;;;;;;11.90;6.63;;;;;;;;;;6244222;28;20049;-61
2022/11/17 06:00:00;;;;;;;13.70;5.95;;;;;;;;;;6245823;28;20136;-61
2022/11/17 06:03:05;;;;;;;9.70;5.30;;;;;;;;;;6247078;28;20444;-61
2022/11/17 06:06:07;;;;;;;10.90;6.35;;;;;;;;;;6245632;28;20441;-62
2022/11/17 06:09:08;;;;;;;9.00;4.68;;;;;;;;;;6254397;28;20495;-61
2022/11/17 06:12:10;;;;;;;11.75;5.30;;;;;;;;;;6248185;28;20041;-61
2022/11/17 06:15:11;;;;;;;9.63;4.28;;;;;;;;;;6246233;28;20496;-61
2022/11/17 06:18:18;;;;;;;7.82;4.35;;;;;;;;;;6248245;28;20072;-61
2022/11/17 06:21:18;;;;;;;6.00;3.67;;;;;;;;;;6248815;28;20506;-61
2022/11/17 06:24:19;;;;;;;6.35;2.88;;;;;;;;;;6245839;28;20049;-62
2022/11/17 06:27:20;;;;;;;8.25;3.10;;;;;;;;;;6249427;28;20048;-61
2022/11/17 06:30:21;;;;;;;10.07;5.25;;;;;;;;;;6247794;28;20116;-61
2022/11/17 06:33:22;;;;;;;11.10;7.32;;;;;;;;;;6245265;28;20052;-61
2022/11/17 06:36:23;;;;;;;10.88;4.68;;;;;;;;;;6247383;28;20045;-61
2022/11/17 06:39:24;;;;;;;10.90;5.37;;;;;;;;;;6245794;28;20053;-61
2022/11/17 06:45:45;;;;;;;16.80;7.35;;;;;;;;;;6245317;28;20091;-61
2022/11/17 06:48:46;;;;;;;;;;;;;;;;;;6251230;28;20099;-60
2022/11/17 06:51:46;;;;;;;20.33;5.80;;;;;;;;;;6250626;28;20097;-61
2022/11/17 06:54:47;;;;;;;9.07;4.25;;;;;;;;;;6260993;28;20053;-61
2022/11/17 06:57:47;;;;;;;13.07;5.68;;;;;;;;;;6243002;28;20045;-61
2022/11/17 07:00:48;;;;;;;18.85;7.38;;;;;;;;;;6253600;28;20052;-61
2022/11/17 07:03:48;;;;;;;15.38;6.13;;;;;;;;;;6251994;28;20139;-61
2022/11/17 07:06:49;;;;;;;16.55;8.15;;;;;;;;;;6253008;28;20045;-61
2022/11/17 07:09:50;;;;;;;12.77;5.82;;;;;;;;;;6250997;28;20099;-61
2022/11/17 07:12:50;;;;;;;9.98;4.65;;;;;;;;;;6250729;28;20037;-62
2022/11/17 07:15:51;;;;;;;14.18;6.32;;;;;;;;;;6254707;28;20439;-61
2022/11/17 07:18:52;;;;;;;14.57;6.50;;;;;;;;;;6251683;28;20065;-61
2022/11/17 07:21:52;;;;;;;11.38;5.97;;;;;;;;;;6253499;28;20512;-61
2022/11/17 07:24:53;;;;;;;13.23;5.43;;;;;;;;;;6252240;28;20103;-61
2022/11/17 07:27:58;;;;;;;12.68;5.03;;;;;;;;;;6250618;28;20068;-61
2022/11/17 07:31:03;;;;;;;12.68;5.93;;;;;;;;;;6249601;28;20052;-61
2022/11/17 07:34:04;;;;;;;14.88;7.53;;;;;;;;;;6251629;28;20060;-60
2022/11/17 07:37:05;;;;;;;18.40;9.45;;;;;;;;;;6251959;28;20461;-61
2022/11/17 07:40:07;;;;;;;18.33;9.18;;;;;;;;;;6254078;28;20749;-61
2022/11/17 07:43:08;;;;;;;14.18;7.00;;;;;;;;;;6252349;28;20052;-61
2022/11/17 07:46:13;;;;;;;18.25;8.85;;;;;;;;;;6250970;28;20088;-61
2022/11/17 07:49:14;;;;;;;10.98;5.78;;;;;;;;;;6252103;28;20049;-61
2022/11/17 07:52:15;;;;;;;15.38;6.50;;;;;;;;;;6249826;28;20107;-61
2022/11/17 07:55:15;;;;;;;12.43;5.63;;;;;;;;;;6249440;28;20352;-60
2022/11/17 07:58:16;;;;;;;13.75;6.40;;;;;;;;;;6247900;28;20500;-61
2022/11/17 08:01:16;;;;;;;14.30;5.82;;;;;;;;;;6248291;28;20045;-61
2022/11/17 08:04:18;;;;;;;14.38;6.55;;;;;;;;;;6253203;28;20055;-61
2022/11/17 08:07:18;;;;;;;13.70;4.95;;;;;;;;;;6252554;28;20449;-61
2022/11/17 08:10:19;;;;;;;11.52;5.75;;;;;;;;;;6249578;28;20081;-61
2022/11/17 08:13:19;;;;;;;10.85;5.28;;;;;;;;;;6251757;28;20500;-62
2022/11/17 08:16:20;;;;;;;13.40;6.03;;;;;;;;;;6247957;28;20052;-61
2022/11/17 08:19:21;;;;;;;12.38;5.60;;;;;;;;;;6251575;28;20047;-61
2022/11/17 08:22:21;;;;;;;15.88;7.53;;;;;;;;;;6252702;28;20057;-61
2022/11/17 08:25:24;;;;;;;16.23;6.20;;;;;;;;;;6247845;28;20057;-61
2022/11/17 08:28:25;;;;;;;19.95;7.60;;;;;;;;;;6251920;28;20049;-60
2022/11/17 08:31:26;;;;;;;21.75;8.77;;;;;;;;;;6250238;28;20056;-61
2022/11/17 08:34:26;;;;;;;20.27;7.93;;;;;;;;;;6250914;28;20045;-61
2022/11/17 08:37:27;;;;;;;25.02;11.85;;;;;;;;;;6238381;28;20079;-60
2022/11/17 08:40:27;;;;;;;13.10;6.40;;;;;;;;;;6249307;28;20069;-61
2022/11/17 08:43:28;;;;;;;16.25;7.00;;;;;;;;;;6250013;28;20061;-61
2022/11/17 08:46:29;;;;;;;13.88;5.55;;;;;;;;;;6252137;28;20079;-60
2022/11/17 08:49:29;;;;;;;10.25;4.18;;;;;;;;;;6249531;28;20041;-61
2022/11/17 08:52:31;;;;;;;17.10;6.20;;;;;;;;;;6247632;28;20137;-61
2022/11/17 08:55:36;;;;;;;10.25;5.13;;;;;;;;;;6248317;28;20053;-60
2022/11/17 08:58:43;;;;;;;12.85;6.18;;;;;;;;;;6249255;28;20056;-61
2022/11/17 09:01:44;;;;;;;9.57;4.38;;;;;;;;;;6251557;28;20046;-60
2022/11/17 09:04:45;;;;;;;11.77;4.70;;;;;;;;;;6248527;28;20041;-60
2022/11/17 09:07:46;;;;;;;14.43;6.10;;;;;;;;;;6248409;28;20172;-61
2022/11/17 09:10:48;;;;;;;16.98;7.35;;;;;;;;;;6247879;28;20628;-61
2022/11/17 09:13:48;;;;;;;18.02;7.95;;;;;;;;;;6265399;28;20049;-61
2022/11/17 09:16:49;;;;;;;15.73;6.72;;;;;;;;;;6267270;28;20060;-61
2022/11/17 09:19:49;;;;;;;13.85;5.30;;;;;;;;;;6261460;28;20041;-60
2022/11/17 09:22:50;;;;;;;13.85;5.68;;;;;;;;;;6250364;28;20041;-60
2022/11/17 09:25:51;;;;;;;9.98;4.53;;;;;;;;;;6248008;28;21200;-61
2022/11/17 09:28:51;;;;;;;13.93;5.28;;;;;;;;;;6250087;28;20154;-61
2022/11/17 09:31:52;;;;;;;15.75;6.65;;;;;;;;;;6250204;28;20144;-62
2022/11/17 09:34:53;;;;;;;12.10;4.57;;;;;;;;;;6246228;28;20049;-61
2022/11/17 09:37:58;;;;;;;9.85;4.25;;;;;;;;;;6247200;28;20040;-61
2022/11/17 09:41:01;;;;;;;10.82;4.25;;;;;;;;;;6248171;28;20075;-61
2022/11/17 09:44:01;;;;;;;;;;;;;;;;;;6250138;28;20306;-61
2022/11/17 09:47:12;;;;;;;14.55;5.38;;;;;;;;;;6247910;28;19931;-61
2022/11/17 09:50:37;;;;;;;16.45;6.97;;;;;;;;;;6248339;28;20044;-61
2022/11/17 09:54:02;;;;;;;15.60;6.38;;;;;;;;;;6242514;28;20041;-61
2022/11/17 09:57:03;;;;;;;16.67;6.82;;;;;;;;;;6244076;28;20045;-61
2022/11/17 10:00:12;;;;;;;15.57;7.00;;;;;;;;;;6247419;28;20140;-61
2022/11/17 10:03:18;;;;;;;13.95;5.78;;;;;;;;;;6248027;28;20049;-61
2022/11/17 10:06:21;;;;;;;17.73;6.05;;;;;;;;;;6249480;28;20049;-61
2022/11/17 10:09:35;;;;;;;20.27;8.18;;;;;;;;;;6246707;28;20470;-61
2022/11/17 10:12:46;;;;;;;18.98;6.68;;;;;;;;;;6249672;28;20045;-61
2022/11/17 10:15:50;;;;;;;14.93;6.35;;;;;;;;;;6248586;28;20053;-60
2022/11/17 10:18:50;;;;;;;16.63;7.10;;;;;;;;;;6247546;28;20041;-60
2022/11/17 10:22:02;;;;;;;16.15;5.72;;;;;;;;;;6250415;28;20045;-61
2022/11/17 10:25:03;;;;;;;16.25;6.82;;;;;;;;;;6267360;28;20097;-60
2022/11/17 10:28:06;;;;;;;13.43;5.30;;;;;;;;;;6260293;28;20045;-61
2022/11/17 10:31:13;;;;;;;12.88;4.20;;;;;;;;;;6252500;28;20052;-61
2022/11/17 10:34:30;;;;;;;14.43;5.00;;;;;;;;;;6252451;28;20073;-60
2022/11/17 10:37:31;;;;;;;14.07;5.68;;;;;;;;;;6252508;28;20381;-61
2022/11/17 10:40:46;;;;;;;13.38;6.20;;;;;;;;;;6254083;28;20049;-61
2022/11/17 10:43:59;;;;;;;10.65;4.72;;;;;;;;;;6260330;28;20489;-60
2022/11/17 10:47:06;;;;;;;12.88;5.35;;;;;;;;;;6271398;28;20075;-60
2022/11/17 10:50:24;;;;;;;13.93;6.63;;;;;;;;;;6260040;28;20040;-61
2022/11/17 10:53:35;;;;;;;16.63;7.25;;;;;;;;;;6250046;28;20488;-60
2022/11/17 10:56:42;;;;;;;17.10;6.90;;;;;;;;;;6248719;28;20054;-60
2022/11/17 10:59:46;;;;;;;18.73;6.85;;;;;;;;;;6248861;28;20120;-62
2022/11/17 11:02:47;;;;;;;22.77;8.95;;;;;;;;;;6250598;28;20041;-60
2022/11/17 11:06:28;;;;;;;22.85;9.98;;;;;;;;;;6249738;28;20207;-60
2022/11/17 11:09:30;;;;;;;17.05;7.95;;;;;;;;;;6247379;28;20135;-60
2022/11/17 11:13:07;;;;;;;24.13;9.30;;;;;;;;;;6251427;28;20139;-61
2022/11/17 11:16:29;;;;;;;28.58;10.23;;;;;;;;;;6251679;28;20660;-61
2022/11/17 11:19:29;;;;;;;29.60;11.40;;;;;;;;;;6250355;28;20049;-60
2022/11/17 11:22:35;;;;;;;35.20;10.43;;;;;;;;;;6250735;28;20045;-61
2022/11/17 11:25:48;;;;;;;20.73;7.35;;;;;;;;;;6250126;28;20164;-61
2022/11/17 11:29:02;;;;;;;25.17;9.43;;;;;;;;;;6249805;28;20083;-61
2022/11/17 11:32:21;;;;;;;26.70;10.07;;;;;;;;;;6249911;28;20073;-62
2022/11/17 11:35:30;;;;;;;25.58;8.70;;;;;;;;;;6250142;28;20047;-61
2022/11/17 11:38:46;;;;;;;23.35;7.88;;;;;;;;;;6261093;28;20478;-61
2022/11/17 11:42:14;;;;;;;13.75;5.70;;;;;;;;;;6250414;28;20067;-61
2022/11/17 11:45:41;;;;;;;17.67;8.93;;;;;;;;;;6249780;28;20057;-61
2022/11/17 11:48:46;;;;;;;13.35;6.75;;;;;;;;;;6248085;28;20048;-61
2022/11/17 11:51:48;;;;;;;10.93;5.95;;;;;;;;;;6251513;28;20103;-61
2022/11/17 11:54:55;;;;;;;18.45;10.02;;;;;;;;;;6249308;28;20520;-61
2022/11/17 11:58:25;;;;;;;21.90;9.52;;;;;;;;;;6241469;28;20080;-62
2022/11/17 12:01:30;;;;;;;19.83;9.30;;;;;;;;;;6235570;28;20052;-62
2022/11/17 12:04:50;;;;;;;13.25;7.40;;;;;;;;;;6248993;28;20051;-61
2022/11/17 12:08:12;;;;;;;13.80;7.22;;;;;;;;;;6251321;28;20041;-61
2022/11/17 12:14:36;;;;;;;16.45;6.25;;;;;;;;;;6247880;28;20045;-61
2022/11/17 12:18:00;;;;;;;14.63;6.82;;;;;;;;;;6248960;28;21138;-62
2022/11/17 12:21:10;;;;;;;17.88;6.85;;;;;;;;;;6253715;28;20051;-61
2022/11/17 12:24:19;;;;;;;13.32;6.35;;;;;;;;;;6249670;28;20076;-61
2022/11/17 12:27:30;;;;;;;15.95;6.65;;;;;;;;;;6246712;28;20041;-61
2022/11/17 12:30:33;;;;;;;15.32;7.00;;;;;;;;;;6251995;28;20519;-61
2022/11/17 12:33:52;;;;;;;18.58;8.57;;;;;;;;;;6248225;28;20044;-61
2022/11/17 12:37:11;;;;;;;19.05;8.25;;;;;;;;;;6246642;28;20037;-60
2022/11/17 12:40:37;;;;;;;18.38;8.40;;;;;;;;;;6246837;28;20045;-61
2022/11/17 12:43:38;;;;;;;18.05;8.13;;;;;;;;;;6250086;28;20041;-61
2022/11/17 12:46:42;;;;;;;20.00;9.30;;;;;;;;;;6251081;28;20399;-61
2022/11/17 12:50:06;;;;;;;23.42;8.02;;;;;;;;;;6247419;28;20098;-62
2022/11/17 12:53:13;;;;;;;21.23;7.30;;;;;;;;;;6246349;28;20145;-61
2022/11/17 12:56:26;;;;;;;19.35;8.00;;;;;;;;;;6247931;28;20045;-61
2022/11/17 12:59:57;;;;;;;27.88;10.27;;;;;;;;;;6247815;28;20067;-61
2022/11/17 13:03:07;;;;;;;21.05;9.23;;;;;;;;;;6245868;28;20062;-62
2022/11/17 13:06:14;;;;;;;17.23;7.25;;;;;;;;;;6249917;28;20098;-61
2022/11/17 13:09:24;;;;;;;21.50;8.80;;;;;;;;;;6249829;28;20037;-61
2022/11/17 13:12:30;;;;;;;27.65;11.57;;;;;;;;;;6247232;28;20041;-61
2022/11/17 13:15:30;;;;;;;24.90;10.77;;;;;;;;;;6247089;28;20048;-61
2022/11/17 13:18:36;;;;;;;21.63;9.13;;;;;;;;;;6247092;28;20107;-61
2022/11/17 13:21:36;;;;;;;25.45;10.15;;;;;;;;;;6246776;28;20053;-61
2022/11/17 13:24:39;;;;;;;27.38;11.32;;;;;;;;;;6245944;28;20526;-61
2022/11/17 13:27:43;;;;;;;23.77;11.00;;;;;;;;;;6248097;28;20053;-61
2022/11/17 13:30:45;;;;;;;22.88;9.50;;;;;;;;;;6251239;28;20094;-61
2022/11/17 13:34:14;;;;;;;21.67;9.90;;;;;;;;;;6247929;28;20051;-61
2022/11/17 13:37:18;;;;;;;23.13;10.02;;;;;;;;;;6246804;28;20301;-62
2022/11/17 13:40:21;;;;;;;25.75;11.20;;;;;;;;;;6247613;28;20087;-61
2022/11/17 13:43:24;;;;;;;29.45;11.07;;;;;;;;;;6253189;28;20076;-61
2022/11/17 13:46:24;;;;;;;38.50;11.98;;;;;;;;;;6260615;28;20077;-61
2022/11/17 13:49:38;;;;;;;33.97;11.73;;;;;;;;;;6245011;28;20037;-62
2022/11/17 13:52:38;;;;;;;22.83;10.07;;;;;;;;;;6247497;28;20053;-61
2022/11/17 13:55:45;;;;;;;23.05;10.20;;;;;;;;;;6248214;28;20065;-61
2022/11/17 13:58:47;;;;;;;24.80;9.55;;;;;;;;;;6245991;28;20044;-61
2022/11/17 14:01:48;;;;;;;35.70;14.65;;;;;;;;;;6244799;28;20048;-62
2022/11/17 14:05:08;;;;;;;66.97;22.10;;;;;;;;;;6245190;28;20049;-61
2022/11/17 14:08:22;;;;;;;31.65;13.15;;;;;;;;;;6245370;28;20046;-61
2022/11/17 14:11:22;;;;;;;33.78;15.20;;;;;;;;;;6240504;28;20140;-62
2022/11/17 14:14:39;;;;;;;23.35;10.38;;;;;;;;;;6249812;28;20450;-61
2022/11/17 14:17:46;;;;;;;31.00;12.18;;;;;;;;;;6252440;28;20056;-61
2022/11/17 14:20:47;;;;;;;23.65;10.73;;;;;;;;;;6248282;28;20106;-61
2022/11/17 14:23:47;;;;;;;34.72;14.07;;;;;;;;;;6252570;28;20480;-59
2022/11/17 14:26:48;;;;;;;28.13;12.05;;;;;;;;;;6258510;28;20075;-59
2022/11/17 14:29:49;;;;;;;30.38;12.85;;;;;;;;;;6256410;28;20045;-62
2022/11/17 14:32:50;;;;;;;27.23;11.45;;;;;;;;;;6253441;28;20079;-61
2022/11/17 14:35:56;;;;;;;27.40;13.52;;;;;;;;;;6249103;28;20044;-62
2022/11/17 14:38:59;;;;;;;23.20;10.05;;;;;;;;;;6251527;28;20048;-61
2022/11/17 14:41:59;;;;;;;20.75;8.93;;;;;;;;;;6248305;28;20750;-61
2022/11/17 14:45:00;;;;;;;26.65;12.35;;;;;;;;;;6254626;28;20101;-61
2022/11/17 14:48:02;;;;;;;26.83;11.25;;;;;;;;;;6252221;28;20106;-60
2022/11/17 14:51:03;;;;;;;25.10;10.90;;;;;;;;;;6249788;28;21151;-61
2022/11/17 14:54:04;;;;;;;30.92;13.45;;;;;;;;;;6254386;28;20051;-60
2022/11/17 14:57:04;;;;;;;34.65;14.25;;;;;;;;;;6257571;28;20065;-61
2022/11/17 15:00:07;;;;;;;32.20;13.75;;;;;;;;;;6252935;28;20126;-61
2022/11/17 15:03:08;;;;;;;36.47;15.50;;;;;;;;;;6252240;28;20056;-62
2022/11/17 15:06:11;;;;;;;42.17;18.10;;;;;;;;;;6252181;28;20049;-61
2022/11/17 15:09:14;;;;;;;35.50;14.48;;;;;;;;;;6255016;28;20393;-61
2022/11/17 15:12:15;;;;;;;36.97;16.13;;;;;;;;;;6250653;28;20072;-61
2022/11/17 15:15:16;;;;;;;30.50;13.40;;;;;;;;;;6255915;28;20045;-60
2022/11/17 15:18:17;;;;;;;39.57;14.10;;;;;;;;;;6259031;28;20146;-61
2022/11/17 15:21:17;;;;;;;33.30;13.93;;;;;;;;;;6254073;28;20041;-62
2022/11/17 15:24:18;;;;;;;50.17;18.35;;;;;;;;;;6259815;28;20052;-60
2022/11/17 15:27:19;;;;;;;49.92;17.98;;;;;;;;;;6258774;28;20042;-61
2022/11/17 15:30:19;;;;;;;46.92;19.15;;;;;;;;;;6258704;28;20455;-61
2022/11/17 15:33:20;;;;;;;35.97;12.75;;;;;;;;;;6264942;28;20491;-61
2022/11/17 15:36:21;;;;;;;36.45;13.82;;;;;;;;;;6266113;28;20049;-62
2022/11/17 15:39:22;;;;;;;29.63;12.55;;;;;;;;;;6268110;28;20084;-60
2022/11/17 15:42:23;;;;;;;26.70;11.60;;;;;;;;;;6263775;28;20053;-62
2022/11/17 15:45:23;;;;;;;27.08;11.85;;;;;;;;;;6268091;28;20151;-61
2022/11/17 15:48:24;;;;;;;31.42;14.10;;;;;;;;;;6257329;28;20052;-61
2022/11/17 15:51:26;;;;;;;33.30;11.50;;;;;;;;;;6258462;28;20158;-61
2022/11/17 15:54:26;;;;;;;26.38;11.57;;;;;;;;;;6262840;28;20064;-61
2022/11/17 15:57:27;;;;;;;32.53;12.48;;;;;;;;;;6260573;28;20049;-61
2022/11/17 16:00:28;;;;;;;35.33;13.00;;;;;;;;;;6259269;28;20514;-60
2022/11/17 16:03:28;;;;;;;34.50;12.65;;;;;;;;;;6252015;28;20041;-62
2022/11/17 16:06:30;;;;;;;31.63;12.60;;;;;;;;;;6259615;28;20060;-62
2022/11/17 16:09:33;;;;;;;;;;;;;;;;;;6261664;28;20056;-61
2022/11/17 16:12:33;;;;;;;26.47;11.97;;;;;;;;;;6259073;28;19929;-61
2022/11/17 16:15:34;;;;;;;31.77;11.77;;;;;;;;;;6260291;28;20329;-62
2022/11/17 16:18:37;;;;;;;36.80;14.18;;;;;;;;;;6256956;28;20669;-61
2022/11/17 16:21:38;;;;;;;30.65;11.85;;;;;;;;;;6250657;28;20046;-61
2022/11/17 16:24:39;;;;;;;37.42;13.57;;;;;;;;;;6262636;28;20056;-60
2022/11/17 16:27:39;;;;;;;33.22;13.05;;;;;;;;;;6265974;28;20045;-61
2022/11/17 16:30:40;;;;;;;39.65;16.00;;;;;;;;;;6260137;28;20056;-62
2022/11/17 16:33:52;;;;;;;36.92;14.70;;;;;;;;;;6260527;28;20137;-62
2022/11/17 16:36:52;;;;;;;32.63;13.43;;;;;;;;;;6263780;28;20190;-61
2022/11/17 16:39:53;;;;;;;32.45;14.25;;;;;;;;;;6267871;28;20518;-61
2022/11/17 16:42:56;;;;;;;40.78;14.43;;;;;;;;;;6261419;28;20048;-61
2022/11/17 16:45:57;;;;;;;37.58;15.57;;;;;;;;;;6260491;28;20056;-61
2022/11/17 16:49:05;;;;;;;33.97;14.90;;;;;;;;;;6258066;28;20565;-61
2022/11/17 16:52:07;;;;;;;42.88;16.88;;;;;;;;;;6259573;28;20167;-61
2022/11/17 16:55:08;;;;;;;38.00;15.55;;;;;;;;;;6259376;28;20103;-64
2022/11/17 16:58:10;;;;;;;36.08;15.77;;;;;;;;;;6260706;28;20471;-65
2022/11/17 17:01:13;;;;;;;40.80;16.27;;;;;;;;;;6258275;28;20558;-62
2022/11/17 17:04:14;;;;;;;52.25;17.92;;;;;;;;;;6257924;28;20044;-61
2022/11/17 17:07:14;;;;;;;55.53;20.98;;;;;;;;;;6263400;28;20041;-63
2022/11/17 17:10:15;;;;;;;38.53;13.80;;;;;;;;;;6260030;28;20064;-63
2022/11/17 17:13:15;;;;;;;38.70;14.93;;;;;;;;;;6258230;28;20087;-60
2022/11/17 17:16:18;;;;;;;36.40;12.65;;;;;;;;;;6263085;28;20118;-61
2022/11/17 17:19:19;;;;;;;35.08;13.38;;;;;;;;;;6262926;28;20191;-62
2022/11/17 17:22:21;;;;;;;42.42;13.85;;;;;;;;;;6259408;28;20041;-61
2022/11/17 17:25:21;;;;;;;29.77;12.50;;;;;;;;;;6274278;28;20168;-62
2022/11/17 17:28:22;;;;;;;33.40;11.52;;;;;;;;;;6273449;28;20297;-62
2022/11/17 17:31:24;;;;;;;37.90;12.63;;;;;;;;;;6265677;28;20483;-67
2022/11/17 17:34:24;;;;;;;31.05;11.88;;;;;;;;;;6269450;28;20495;-63
2022/11/17 17:37:25;;;;;;;32.40;10.93;;;;;;;;;;6264567;28;20052;-66
2022/11/17 17:40:25;;;;;;;39.90;14.05;;;;;;;;;;6260760;28;20159;-62
2022/11/17 17:43:26;;;;;;;31.75;13.95;;;;;;;;;;6266441;28;20588;-62
2022/11/17 17:46:30;;;;;;;35.00;14.77;;;;;;;;;;6266975;28;20075;-62
2022/11/17 17:49:31;;;;;;;43.50;16.00;;;;;;;;;;6272742;28;20056;-64
2022/11/17 17:52:31;;;;;;;30.20;12.63;;;;;;;;;;6269497;28;20052;-66
2022/11/17 17:55:33;;;;;;;32.92;13.20;;;;;;;;;;6271947;28;20048;-62
2022/11/17 17:58:39;;;;;;;34.40;12.50;;;;;;;;;;6269098;28;20063;-62
2022/11/17 18:01:40;;;;;;;31.27;12.07;;;;;;;;;;6269468;28;20414;-63
2022/11/17 18:04:41;;;;;;;33.47;14.27;;;;;;;;;;6268573;28;20049;-61
2022/11/17 18:07:42;;;;;;;33.35;12.82;;;;;;;;;;6265299;28;20049;-62
2022/11/17 18:10:42;;;;;;;35.88;14.32;;;;;;;;;;6263357;28;20053;-63
2022/11/17 18:13:45;;;;;;;33.80;14.50;;;;;;;;;;6270710;28;20045;-63
2022/11/17 18:16:46;;;;;;;42.35;15.45;;;;;;;;;;6264915;28;20060;-63
2022/11/17 18:19:47;;;;;;;40.33;14.25;;;;;;;;;;6267435;28;20487;-64
2022/11/17 18:22:48;;;;;;;33.30;14.65;;;;;;;;;;6264370;28;20056;-63
2022/11/17 18:25:48;;;;;;;37.17;14.98;;;;;;;;;;6269713;28;20057;-60
2022/11/17 18:28:57;;;;;;;39.60;16.13;;;;;;;;;;6269321;28;20084;-66
2022/11/17 18:31:58;;;;;;;47.30;17.00;;;;;;;;;;6263849;28;20048;-62
2022/11/17 18:34:59;;;;;;;37.72;13.95;;;;;;;;;;6261653;28;20697;-62
2022/11/17 18:37:59;;;;;;;39.08;13.10;;;;;;;;;;6261838;28;20052;-62
2022/11/17 18:41:09;;;;;;;31.55;12.00;;;;;;;;;;6266220;28;20219;-61
2022/11/17 18:44:11;;;;;;;35.47;14.45;;;;;;;;;;6265330;28;20067;-61
2022/11/17 18:47:12;;;;;;;32.95;12.98;;;;;;;;;;6254563;28;20052;-62
2022/11/17 18:50:13;;;;;;;34.72;13.00;;;;;;;;;;6251052;28;20044;-61